createdAt,value
2023-03-31T00:01:13.465Z,95651
2023-03-31T00:02:13.609Z,95651
2023-03-31T00:03:13.590Z,95654
2023-03-31T00:04:14.050Z,95654
2023-03-31T00:05:13.519Z,95653
2023-03-31T00:06:13.487Z,95653
2023-03-31T00:07:13.524Z,95649
2023-03-31T00:08:13.501Z,95650
2023-03-31T00:09:13.510Z,95649
2023-03-31T00:10:18.441Z,95649
2023-03-31T00:11:13.483Z,95648
2023-03-31T00:12:13.477Z,95648
2023-03-31T00:13:13.501Z,95647
2023-03-31T00:14:13.507Z,95647
2023-03-31T00:15:13.543Z,95644
2023-03-31T00:17:13.492Z,95647
2023-03-31T00:19:13.513Z,95645
2023-03-31T00:22:13.583Z,95652
2023-03-31T00:23:13.565Z,95652
2023-03-31T00:24:13.531Z,95653
2023-03-31T00:25:13.500Z,95647
2023-03-31T00:26:13.541Z,95649
2023-03-31T00:27:13.543Z,95645
2023-03-31T00:28:13.567Z,95645
2023-03-31T00:29:13.531Z,95645
2023-03-31T00:30:13.551Z,95639
2023-03-31T00:31:13.572Z,95641
2023-03-31T00:32:13.555Z,95638
2023-03-31T00:33:13.543Z,95643
2023-03-31T00:34:13.567Z,95646
2023-03-31T00:35:13.552Z,95643
2023-03-31T00:37:13.537Z,95642
2023-03-31T00:38:13.571Z,95637
2023-03-31T00:39:13.563Z,95637
2023-03-31T00:40:13.569Z,95639
2023-03-31T00:42:13.571Z,95641
2023-03-31T00:44:13.576Z,95644
2023-03-31T00:45:13.555Z,95635
2023-03-31T00:46:13.640Z,95627
2023-03-31T00:47:13.588Z,95627
2023-03-31T00:48:13.652Z,95634
2023-03-31T00:49:13.573Z,95618
2023-03-31T00:50:13.562Z,95616
2023-03-31T00:51:13.602Z,95611
2023-03-31T00:52:13.631Z,95614
2023-03-31T00:53:13.597Z,95611
2023-03-31T00:54:13.573Z,95607
2023-03-31T00:55:13.586Z,95609
2023-03-31T00:56:13.605Z,95618
2023-03-31T00:57:13.640Z,95618
2023-03-31T00:58:13.584Z,95630
2023-03-31T00:59:13.596Z,95624
2023-03-31T01:01:13.652Z,95613
2023-03-31T01:02:13.600Z,95613
2023-03-31T01:03:13.668Z,95613
2023-03-31T01:04:13.657Z,95617
2023-03-31T01:05:13.623Z,95614
2023-03-31T01:06:13.624Z,95609
2023-03-31T01:07:13.611Z,95606
2023-03-31T01:08:13.628Z,95606
2023-03-31T01:09:13.622Z,95603
2023-03-31T01:10:13.658Z,95605
2023-03-31T01:11:13.638Z,95605
2023-03-31T01:12:13.621Z,95605
2023-03-31T01:13:13.667Z,95603
2023-03-31T01:14:13.622Z,95601
2023-03-31T01:15:13.656Z,95599
2023-03-31T01:16:13.673Z,95604
2023-03-31T01:17:13.739Z,95598
2023-03-31T01:18:13.757Z,95597
2023-03-31T01:19:13.684Z,95597
2023-03-31T01:20:13.676Z,95594
2023-03-31T01:21:13.662Z,95593
2023-03-31T01:22:13.704Z,95595
2023-03-31T01:23:13.649Z,95596
2023-03-31T01:24:13.683Z,95596
2023-03-31T01:25:13.671Z,95595
2023-03-31T01:26:13.657Z,95592
2023-03-31T01:27:13.695Z,95588
2023-03-31T01:28:13.665Z,95588
2023-03-31T01:29:13.705Z,95584
2023-03-31T01:31:13.708Z,95583
2023-03-31T01:32:13.661Z,95583
2023-03-31T01:33:13.790Z,95584
2023-03-31T01:34:13.712Z,95588
2023-03-31T01:35:13.745Z,95587
2023-03-31T01:36:13.767Z,95582
2023-03-31T01:37:13.682Z,95578
2023-03-31T01:38:13.739Z,95573
2023-03-31T01:39:13.722Z,95570
2023-03-31T01:40:13.721Z,95568
2023-03-31T01:41:13.701Z,95568
2023-03-31T01:42:13.692Z,95563
2023-03-31T01:43:13.702Z,95563
2023-03-31T01:44:13.700Z,95565
2023-03-31T01:45:13.742Z,95560
2023-03-31T01:46:13.787Z,95560
2023-03-31T01:47:13.744Z,95554
2023-03-31T01:48:13.793Z,95555
2023-03-31T01:49:13.759Z,95555
2023-03-31T01:50:13.724Z,95556
2023-03-31T01:51:13.777Z,95556
2023-03-31T01:52:13.778Z,95556
2023-03-31T01:55:13.734Z,95553
2023-03-31T01:56:13.748Z,95548
2023-03-31T01:57:13.788Z,95546
2023-03-31T01:59:13.743Z,95546
2023-03-31T02:00:13.760Z,95548
2023-03-31T02:01:13.792Z,95547
2023-03-31T02:02:13.877Z,95546
2023-03-31T02:03:13.841Z,95546
2023-03-31T02:05:13.782Z,95548
2023-03-31T02:06:13.797Z,95543
2023-03-31T02:07:13.757Z,95539
2023-03-31T02:08:13.788Z,95544
2023-03-31T02:09:13.790Z,95542
2023-03-31T02:10:13.818Z,95542
2023-03-31T02:11:13.828Z,95526
2023-03-31T02:12:13.799Z,95526
2023-03-31T02:13:13.774Z,95522
2023-03-31T02:14:13.826Z,95515
2023-03-31T02:15:13.797Z,95515
2023-03-31T02:16:13.829Z,95513
2023-03-31T02:17:13.813Z,95506
2023-03-31T02:18:13.800Z,95506
2023-03-31T02:19:13.839Z,95499
2023-03-31T02:20:13.797Z,95497
2023-03-31T02:21:13.822Z,95497
2023-03-31T02:22:13.786Z,95502
2023-03-31T02:23:13.820Z,95499
2023-03-31T02:24:13.861Z,95499
2023-03-31T02:25:13.830Z,95486
2023-03-31T02:26:13.837Z,95476
2023-03-31T02:27:13.862Z,95470
2023-03-31T02:28:13.854Z,95470
2023-03-31T02:29:13.913Z,95475
2023-03-31T02:30:13.850Z,95475
2023-03-31T02:31:13.823Z,95479
2023-03-31T02:32:13.855Z,95471
2023-03-31T02:33:13.875Z,95472
2023-03-31T02:34:13.858Z,95464
2023-03-31T02:35:13.867Z,95462
2023-03-31T02:37:13.894Z,95457
2023-03-31T02:39:13.854Z,95460
2023-03-31T02:40:13.881Z,95462
2023-03-31T02:41:13.879Z,95460
2023-03-31T02:45:13.903Z,95444
2023-03-31T02:46:13.912Z,95441
2023-03-31T02:47:13.897Z,95447
2023-03-31T02:48:13.904Z,95449
2023-03-31T02:49:13.885Z,95449
2023-03-31T02:50:13.935Z,95448
2023-03-31T02:51:13.902Z,95449
2023-03-31T02:52:13.865Z,95449
2023-03-31T02:53:13.878Z,95435
2023-03-31T02:54:13.889Z,95435
2023-03-31T02:55:13.914Z,95428
2023-03-31T02:56:13.899Z,95428
2023-03-31T02:59:13.925Z,95413
2023-03-31T03:00:13.940Z,95413
2023-03-31T03:01:13.957Z,95409
2023-03-31T03:02:13.962Z,95407
2023-03-31T03:03:14.009Z,95407
2023-03-31T03:04:13.940Z,95410
2023-03-31T03:05:13.928Z,95409
2023-03-31T03:06:13.951Z,95409
2023-03-31T03:07:13.910Z,95399
2023-03-31T03:08:13.951Z,95396
2023-03-31T03:09:13.929Z,95398
2023-03-31T03:10:13.926Z,95393
2023-03-31T03:11:13.937Z,95385
2023-03-31T03:12:13.970Z,95382
2023-03-31T03:13:13.943Z,95391
2023-03-31T03:14:13.953Z,95391
2023-03-31T03:15:13.957Z,95371
2023-03-31T03:16:14.093Z,95359
2023-03-31T03:17:13.953Z,95359
2023-03-31T03:18:13.962Z,95356
2023-03-31T03:19:13.981Z,95350
2023-03-31T03:20:13.964Z,95346
2023-03-31T03:21:13.993Z,95344
2023-03-31T03:22:13.960Z,95341
2023-03-31T03:23:13.966Z,95324
2023-03-31T03:24:13.981Z,95316
2023-03-31T03:25:13.993Z,95302
2023-03-31T03:26:14.018Z,95301
2023-03-31T03:27:13.977Z,95299
2023-03-31T03:28:13.990Z,95300
2023-03-31T03:29:13.977Z,95296
2023-03-31T03:30:13.981Z,95296
2023-03-31T03:31:14.058Z,95293
2023-03-31T03:32:13.976Z,95294
2023-03-31T03:33:15.532Z,95286
2023-03-31T03:34:14.019Z,95284
2023-03-31T03:35:14.015Z,95280
2023-03-31T03:36:14.077Z,95276
2023-03-31T03:37:13.992Z,95276
2023-03-31T03:38:14.037Z,95281
2023-03-31T03:39:14.025Z,95278
2023-03-31T03:40:14.043Z,95278
2023-03-31T03:41:14.008Z,95274
2023-03-31T03:42:14.005Z,95270
2023-03-31T03:43:14.029Z,95268
2023-03-31T03:44:14.068Z,95256
2023-03-31T03:45:14.035Z,95256
2023-03-31T03:46:14.069Z,95242
2023-03-31T03:47:14.066Z,95242
2023-03-31T03:48:14.024Z,95235
2023-03-31T03:49:14.028Z,95235
2023-03-31T03:50:15.794Z,95227
2023-03-31T03:51:14.050Z,95227
2023-03-31T03:52:14.095Z,95219
2023-03-31T03:54:14.063Z,95204
2023-03-31T03:55:14.092Z,95204
2023-03-31T03:56:14.033Z,95189
2023-03-31T03:57:14.130Z,95190
2023-03-31T03:58:14.046Z,95193
2023-03-31T03:59:14.076Z,95193
2023-03-31T04:00:14.037Z,95201
2023-03-31T04:01:14.091Z,95205
2023-03-31T04:02:14.109Z,95205
2023-03-31T04:03:14.092Z,95206
2023-03-31T04:04:14.059Z,95200
2023-03-31T04:05:14.140Z,95201
2023-03-31T04:06:14.047Z,95201
2023-03-31T04:07:14.044Z,95197
2023-03-31T04:08:14.103Z,95193
2023-03-31T04:09:14.060Z,95187
2023-03-31T04:10:14.132Z,95181
2023-03-31T04:11:15.200Z,95180
2023-03-31T04:12:14.065Z,95180
2023-03-31T04:13:14.078Z,95176
2023-03-31T04:14:14.090Z,95175
2023-03-31T04:15:14.071Z,95177
2023-03-31T04:16:14.200Z,95175
2023-03-31T04:17:14.112Z,95174
2023-03-31T04:18:15.103Z,95174
2023-03-31T04:19:14.118Z,95169
2023-03-31T04:20:14.103Z,95169
2023-03-31T04:21:14.100Z,95170
2023-03-31T04:22:14.155Z,95176
2023-03-31T04:24:14.126Z,95171
2023-03-31T04:25:14.130Z,95173
2023-03-31T04:26:14.137Z,95176
2023-03-31T04:27:14.149Z,95180
2023-03-31T04:28:14.137Z,95172
2023-03-31T04:29:14.121Z,95172
2023-03-31T04:30:14.139Z,95168
2023-03-31T04:31:14.131Z,95149
2023-03-31T04:32:14.157Z,95149
2023-03-31T04:33:14.154Z,95149
2023-03-31T04:34:14.162Z,95147
2023-03-31T04:35:14.169Z,95142
2023-03-31T04:38:14.146Z,95141
2023-03-31T04:39:14.161Z,95137
2023-03-31T04:40:14.139Z,95130
2023-03-31T04:41:14.176Z,95124
2023-03-31T04:42:14.167Z,95124
2023-03-31T04:43:14.150Z,95118
2023-03-31T04:44:14.136Z,95116
2023-03-31T04:45:14.202Z,95113
2023-03-31T04:46:14.209Z,95107
2023-03-31T04:47:14.190Z,95098
2023-03-31T04:48:14.199Z,95096
2023-03-31T04:49:14.168Z,95096
2023-03-31T04:50:16.688Z,95113
2023-03-31T04:51:14.173Z,95115
2023-03-31T04:52:14.175Z,95112
2023-03-31T04:53:14.192Z,95107
2023-03-31T04:54:14.190Z,95100
2023-03-31T04:55:14.193Z,95091
2023-03-31T04:56:14.235Z,95081
2023-03-31T04:57:14.196Z,95085
2023-03-31T04:58:14.211Z,95080
2023-03-31T04:59:14.209Z,95080
2023-03-31T05:00:14.188Z,95076
2023-03-31T05:01:14.235Z,95076
2023-03-31T05:02:14.256Z,95085
2023-03-31T05:03:14.371Z,95080
2023-03-31T05:04:14.228Z,95087
2023-03-31T05:06:14.200Z,95087
2023-03-31T05:07:14.250Z,95076
2023-03-31T05:08:14.236Z,95083
2023-03-31T05:09:14.242Z,95075
2023-03-31T05:10:14.253Z,95075
2023-03-31T05:11:14.275Z,95069
2023-03-31T05:12:14.227Z,95064
2023-03-31T05:13:14.235Z,95054
2023-03-31T05:14:14.262Z,95046
2023-03-31T05:15:15.020Z,95043
2023-03-31T05:16:14.365Z,95040
2023-03-31T05:17:14.260Z,95055
2023-03-31T05:18:14.277Z,95048
2023-03-31T05:19:14.270Z,95048
2023-03-31T05:20:14.319Z,95051
2023-03-31T05:21:14.294Z,95048
2023-03-31T05:22:14.270Z,95053
2023-03-31T05:23:14.252Z,95051
2023-03-31T05:24:14.261Z,95050
2023-03-31T05:25:14.334Z,95053
2023-03-31T05:26:14.280Z,95052
2023-03-31T05:27:14.290Z,95052
2023-03-31T05:28:14.298Z,95049
2023-03-31T05:29:14.293Z,95050
2023-03-31T05:30:14.313Z,95051
2023-03-31T05:31:14.307Z,95051
2023-03-31T05:32:14.322Z,95045
2023-03-31T05:33:14.321Z,95052
2023-03-31T05:34:14.321Z,95054
2023-03-31T05:36:14.365Z,95060
2023-03-31T05:37:14.321Z,95060
2023-03-31T05:38:14.296Z,95064
2023-03-31T05:40:14.322Z,95085
2023-03-31T05:41:14.329Z,95088
2023-03-31T05:43:14.359Z,95088
2023-03-31T05:46:14.344Z,95106
2023-03-31T05:48:14.338Z,95102
2023-03-31T05:49:14.326Z,95101
2023-03-31T05:50:14.962Z,95111
2023-03-31T05:51:14.360Z,95122
2023-03-31T05:52:14.337Z,95113
2023-03-31T05:53:14.327Z,95113
2023-03-31T05:55:14.350Z,95091
2023-03-31T05:56:15.428Z,95081
2023-03-31T05:57:14.390Z,95080
2023-03-31T05:58:14.384Z,95075
2023-03-31T05:59:15.091Z,95072
2023-03-31T06:00:14.349Z,95079
2023-03-31T06:01:17.642Z,95082
2023-03-31T06:02:14.432Z,95077
2023-03-31T06:03:14.418Z,95072
2023-03-31T06:04:14.416Z,95072
2023-03-31T06:05:14.412Z,95073
2023-03-31T06:06:14.370Z,95065
2023-03-31T06:07:14.370Z,95072
2023-03-31T06:08:14.356Z,95079
2023-03-31T06:09:20.092Z,95074
2023-03-31T06:10:14.421Z,95065
2023-03-31T06:11:14.420Z,95065
2023-03-31T06:12:14.389Z,95070
2023-03-31T06:13:14.598Z,95078
2023-03-31T06:14:14.398Z,95078
2023-03-31T06:15:14.399Z,95095
2023-03-31T06:16:14.441Z,95086
2023-03-31T06:19:14.448Z,95091
2023-03-31T06:20:27.025Z,95082
2023-03-31T06:22:14.418Z,95093
2023-03-31T06:23:14.480Z,95092
2023-03-31T06:24:14.480Z,95099
2023-03-31T06:25:14.453Z,95096
2023-03-31T06:26:14.418Z,95096
2023-03-31T06:27:14.436Z,95097
2023-03-31T06:28:14.447Z,95097
2023-03-31T06:29:14.458Z,95097
2023-03-31T06:30:14.425Z,95093
2023-03-31T06:31:14.503Z,95092
2023-03-31T06:33:14.434Z,95095
2023-03-31T06:34:14.462Z,95100
2023-03-31T06:35:14.438Z,95101
2023-03-31T06:36:14.504Z,95102
2023-03-31T06:37:14.446Z,95097
2023-03-31T06:39:14.494Z,95105
2023-03-31T06:40:14.456Z,95101
2023-03-31T06:41:14.453Z,95099
2023-03-31T06:42:14.491Z,95100
2023-03-31T06:44:14.476Z,95095
2023-03-31T06:45:14.467Z,95100
2023-03-31T06:46:14.501Z,95100
2023-03-31T06:48:14.470Z,95100
2023-03-31T06:50:14.478Z,95101
2023-03-31T06:51:14.527Z,95101
2023-03-31T06:52:14.524Z,95096
2023-03-31T06:53:14.560Z,95100
2023-03-31T06:54:14.514Z,95104
2023-03-31T06:56:14.507Z,95105
2023-03-31T06:57:14.576Z,95103
2023-03-31T06:58:14.491Z,95114
2023-03-31T06:59:14.523Z,95106
2023-03-31T07:00:14.537Z,95100
2023-03-31T07:01:14.589Z,95115
2023-03-31T07:02:14.535Z,95118
2023-03-31T07:03:14.646Z,95126
2023-03-31T07:04:14.513Z,95135
2023-03-31T07:05:14.540Z,95143
2023-03-31T07:06:14.510Z,95143
2023-03-31T07:07:14.503Z,95143
2023-03-31T07:08:14.540Z,95145
2023-03-31T07:09:14.518Z,95143
2023-03-31T07:10:14.517Z,95137
2023-03-31T07:11:14.761Z,95137
2023-03-31T07:12:14.573Z,95118
2023-03-31T07:14:14.533Z,95116
2023-03-31T07:15:14.540Z,95108
2023-03-31T07:16:14.672Z,95087
2023-03-31T07:17:14.565Z,95121
2023-03-31T07:19:14.534Z,95132
2023-03-31T07:20:14.584Z,95129
2023-03-31T07:21:14.752Z,95145
2023-03-31T07:23:14.631Z,95130
2023-03-31T07:24:14.594Z,95139
2023-03-31T07:25:14.575Z,95131
2023-03-31T07:26:14.606Z,95131
2023-03-31T07:27:14.589Z,95123
2023-03-31T07:28:14.615Z,95122
2023-03-31T07:29:14.581Z,95122
2023-03-31T07:30:14.585Z,95110
2023-03-31T07:31:14.630Z,95118
2023-03-31T07:32:14.669Z,95123
2023-03-31T07:33:14.678Z,95121
2023-03-31T07:34:14.621Z,95112
2023-03-31T07:35:14.619Z,95116
2023-03-31T07:36:14.826Z,95114
2023-03-31T07:37:14.628Z,95116
2023-03-31T07:38:14.617Z,95117
2023-03-31T07:39:14.627Z,95132
2023-03-31T07:40:14.596Z,95132
2023-03-31T07:41:14.663Z,95129
2023-03-31T07:42:14.600Z,95133
2023-03-31T07:43:14.663Z,95126
2023-03-31T07:44:14.625Z,95133
2023-03-31T07:46:14.638Z,95130
2023-03-31T07:47:14.610Z,95119
2023-03-31T07:48:14.682Z,95120
2023-03-31T07:49:14.666Z,95111
2023-03-31T07:50:14.661Z,95111
2023-03-31T07:53:14.635Z,95104
2023-03-31T07:54:14.642Z,95101
2023-03-31T07:55:14.670Z,95106
2023-03-31T07:56:14.655Z,95106
2023-03-31T07:57:14.713Z,95107
2023-03-31T07:58:14.665Z,95107
2023-03-31T07:59:14.640Z,95108
2023-03-31T08:01:14.704Z,95106
2023-03-31T08:02:14.697Z,95104
2023-03-31T08:03:14.722Z,95091
2023-03-31T08:04:14.739Z,95092
2023-03-31T08:05:14.677Z,95091
2023-03-31T08:06:14.651Z,95096
2023-03-31T08:07:14.695Z,95085
2023-03-31T08:08:14.693Z,95080
2023-03-31T08:09:14.677Z,95079
2023-03-31T08:10:14.695Z,95086
2023-03-31T08:13:14.685Z,95089
2023-03-31T08:14:14.708Z,95088
2023-03-31T08:16:14.917Z,95093
2023-03-31T08:17:14.690Z,95103
2023-03-31T08:18:14.752Z,95103
2023-03-31T08:19:14.688Z,95111
2023-03-31T08:20:14.693Z,95102
2023-03-31T08:21:14.779Z,95108
2023-03-31T08:22:14.702Z,95108
2023-03-31T08:23:14.781Z,95120
2023-03-31T08:24:14.745Z,95118
2023-03-31T08:25:14.729Z,95113
2023-03-31T08:26:17.703Z,95113
2023-03-31T08:27:14.737Z,95118
2023-03-31T08:28:14.755Z,95110
2023-03-31T08:29:14.735Z,95110
2023-03-31T08:30:14.730Z,95116
2023-03-31T08:31:14.809Z,95108
2023-03-31T08:32:14.745Z,95108
2023-03-31T08:33:14.733Z,95109
2023-03-31T08:34:14.766Z,95104
2023-03-31T08:35:14.732Z,95104
2023-03-31T08:36:14.798Z,95115
2023-03-31T08:37:14.740Z,95112
2023-03-31T08:38:14.756Z,95112
2023-03-31T08:39:14.738Z,95123
2023-03-31T08:40:14.771Z,95116
2023-03-31T08:41:14.782Z,95120
2023-03-31T08:42:16.159Z,95121
2023-03-31T08:43:14.865Z,95121
2023-03-31T08:44:14.811Z,95115
2023-03-31T08:45:14.749Z,95113
2023-03-31T08:46:14.857Z,95116
2023-03-31T08:47:14.770Z,95119
2023-03-31T08:48:14.844Z,95118
2023-03-31T08:49:17.275Z,95116
2023-03-31T08:50:14.794Z,95119
2023-03-31T08:51:14.823Z,95119
2023-03-31T08:52:14.808Z,95108
2023-03-31T08:53:14.814Z,95110
2023-03-31T08:55:14.819Z,95110
2023-03-31T08:56:14.830Z,95114
2023-03-31T08:57:14.833Z,95115
2023-03-31T08:58:14.807Z,95120
2023-03-31T08:59:14.820Z,95109
2023-03-31T09:00:14.833Z,95104
2023-03-31T09:01:14.835Z,95105
2023-03-31T09:02:14.940Z,95103
2023-03-31T09:03:17.465Z,95095
2023-03-31T09:04:15.046Z,95092
2023-03-31T09:05:14.857Z,95098
2023-03-31T09:06:15.117Z,95098
2023-03-31T09:07:14.842Z,95108
2023-03-31T09:08:14.818Z,95109
2023-03-31T09:09:14.905Z,95110
2023-03-31T09:10:14.826Z,95096
2023-03-31T09:11:14.822Z,95096
2023-03-31T09:12:14.809Z,95101
2023-03-31T09:13:14.925Z,95106
2023-03-31T09:14:14.883Z,95108
2023-03-31T09:15:16.157Z,95108
2023-03-31T09:16:16.519Z,95120
2023-03-31T09:17:14.961Z,95112
2023-03-31T09:18:14.878Z,95085
2023-03-31T09:19:14.877Z,95092
2023-03-31T09:20:14.845Z,95092
2023-03-31T09:21:14.867Z,95089
2023-03-31T09:22:14.894Z,95098
2023-03-31T09:23:16.327Z,95100
2023-03-31T09:24:14.982Z,95105
2023-03-31T09:25:14.886Z,95095
2023-03-31T09:26:14.901Z,95078
2023-03-31T09:27:14.862Z,95056
2023-03-31T09:28:14.869Z,95050
2023-03-31T09:29:14.897Z,95050
2023-03-31T09:30:14.891Z,95053
2023-03-31T09:31:14.908Z,95056
2023-03-31T09:32:14.868Z,95056
2023-03-31T09:33:14.917Z,95058
2023-03-31T09:34:14.889Z,95058
2023-03-31T09:35:14.938Z,95062
2023-03-31T09:36:14.951Z,95048
2023-03-31T09:37:14.889Z,95044
2023-03-31T09:38:14.897Z,95052
2023-03-31T09:39:14.951Z,95060
2023-03-31T09:40:14.930Z,95058
2023-03-31T09:41:14.936Z,95050
2023-03-31T09:42:14.924Z,95062
2023-03-31T09:43:14.932Z,95067
2023-03-31T09:44:14.972Z,95057
2023-03-31T09:45:14.949Z,95058
2023-03-31T09:46:15.377Z,95052
2023-03-31T09:47:14.982Z,95064
2023-03-31T09:48:14.929Z,95064
2023-03-31T09:49:14.973Z,95066
2023-03-31T09:50:14.939Z,95076
2023-03-31T09:51:14.938Z,95076
2023-03-31T09:52:15.491Z,95057
2023-03-31T09:53:14.927Z,95057
2023-03-31T09:54:14.987Z,95034
2023-03-31T09:55:16.191Z,95039
2023-03-31T09:56:15.090Z,95039
2023-03-31T09:57:15.010Z,95042
2023-03-31T09:58:14.957Z,95032
2023-03-31T09:59:15.011Z,95037
2023-03-31T10:00:15.034Z,95045
2023-03-31T10:01:15.067Z,95046
2023-03-31T10:02:14.956Z,95057
2023-03-31T10:03:15.005Z,95053
2023-03-31T10:04:15.716Z,95042
2023-03-31T10:05:14.959Z,95042
2023-03-31T10:06:15.008Z,95054
2023-03-31T10:07:15.123Z,95051
2023-03-31T10:08:15.003Z,95064
2023-03-31T10:09:15.008Z,95049
2023-03-31T10:10:15.381Z,95051
2023-03-31T10:11:15.014Z,95047
2023-03-31T10:12:15.035Z,95042
2023-03-31T10:13:14.978Z,95039
2023-03-31T10:14:15.010Z,95039
2023-03-31T10:15:15.055Z,95043
2023-03-31T10:16:15.039Z,95035
2023-03-31T10:17:14.988Z,95040
2023-03-31T10:18:15.071Z,95048
2023-03-31T10:19:15.034Z,95048
2023-03-31T10:20:14.990Z,95046
2023-03-31T10:21:15.044Z,95020
2023-03-31T10:22:15.578Z,95020
2023-03-31T10:23:15.029Z,95005
2023-03-31T10:24:15.034Z,95010
2023-03-31T10:25:15.049Z,95005
2023-03-31T10:26:15.013Z,95003
2023-03-31T10:28:15.036Z,95001
2023-03-31T10:31:15.083Z,94969
2023-03-31T10:32:15.042Z,94949
2023-03-31T10:33:22.849Z,94976
2023-03-31T10:34:15.033Z,94968
2023-03-31T10:35:15.107Z,94970
2023-03-31T10:36:15.084Z,94980
2023-03-31T10:37:15.077Z,94975
2023-03-31T10:38:15.035Z,94975
2023-03-31T10:39:15.071Z,94990
2023-03-31T10:40:15.062Z,94996
2023-03-31T10:41:15.097Z,94982
2023-03-31T10:42:15.074Z,94970
2023-03-31T10:43:15.082Z,94970
2023-03-31T10:44:15.090Z,94978
2023-03-31T10:45:26.322Z,94971
2023-03-31T10:46:15.111Z,94972
2023-03-31T10:47:15.095Z,94969
2023-03-31T10:48:15.104Z,94959
2023-03-31T10:49:15.116Z,94950
2023-03-31T10:50:15.108Z,94955
2023-03-31T10:51:15.101Z,94970
2023-03-31T10:52:15.130Z,94970
2023-03-31T10:53:15.142Z,94989
2023-03-31T10:54:15.133Z,94989
2023-03-31T10:55:15.104Z,95004
2023-03-31T10:56:15.098Z,94989
2023-03-31T10:57:15.171Z,94977
2023-03-31T10:58:15.131Z,94972
2023-03-31T10:59:15.139Z,94968
2023-03-31T11:00:15.127Z,94968
2023-03-31T11:01:15.182Z,94981
2023-03-31T11:02:15.165Z,94980
2023-03-31T11:03:15.252Z,94989
2023-03-31T11:04:15.131Z,94999
2023-03-31T11:05:15.127Z,94999
2023-03-31T11:06:15.150Z,94999
2023-03-31T11:07:15.132Z,94999
2023-03-31T11:08:15.265Z,94995
2023-03-31T11:09:15.136Z,95014
2023-03-31T11:10:15.148Z,95013
2023-03-31T11:11:15.111Z,95013
2023-03-31T11:12:15.159Z,95014
2023-03-31T11:13:15.167Z,95005
2023-03-31T11:14:15.131Z,95005
2023-03-31T11:15:15.163Z,95002
2023-03-31T11:16:15.185Z,94992
2023-03-31T11:17:15.249Z,94995
2023-03-31T11:18:15.157Z,95010
2023-03-31T11:19:15.144Z,95010
2023-03-31T11:20:15.154Z,94987
2023-03-31T11:21:15.192Z,94991
2023-03-31T11:22:15.191Z,95003
2023-03-31T11:23:15.169Z,94998
2023-03-31T11:25:15.170Z,94996
2023-03-31T11:26:15.182Z,94992
2023-03-31T11:27:15.183Z,94982
2023-03-31T11:29:15.226Z,94970
2023-03-31T11:30:15.378Z,94951
2023-03-31T11:31:15.184Z,94956
2023-03-31T11:32:15.228Z,94964
2023-03-31T11:33:15.270Z,94964
2023-03-31T11:34:15.226Z,94967
2023-03-31T11:35:15.183Z,94960
2023-03-31T11:36:15.229Z,94968
2023-03-31T11:37:15.188Z,94968
2023-03-31T11:38:15.190Z,94962
2023-03-31T11:39:15.263Z,94965
2023-03-31T11:40:15.257Z,94965
2023-03-31T11:41:15.237Z,94967
2023-03-31T11:43:15.253Z,94958
2023-03-31T11:44:15.264Z,94960
2023-03-31T11:46:15.263Z,94951
2023-03-31T11:47:15.259Z,94952
2023-03-31T11:48:15.294Z,94946
2023-03-31T11:49:15.232Z,94940
2023-03-31T11:50:15.285Z,94935
2023-03-31T11:51:15.245Z,94930
2023-03-31T11:52:15.269Z,94919
2023-03-31T11:53:15.239Z,94928
2023-03-31T11:54:15.258Z,94928
2023-03-31T11:56:15.284Z,94918
2023-03-31T11:57:15.310Z,94928
2023-03-31T11:58:15.264Z,94931
2023-03-31T11:59:15.272Z,94927
2023-03-31T12:00:15.337Z,94935
2023-03-31T12:01:15.269Z,94926
2023-03-31T12:02:15.276Z,94926
2023-03-31T12:03:15.471Z,94925
2023-03-31T12:04:15.283Z,94950
2023-03-31T12:05:15.317Z,94933
2023-03-31T12:06:15.283Z,94923
2023-03-31T12:07:15.296Z,94923
2023-03-31T12:08:15.279Z,94939
2023-03-31T12:09:15.290Z,94941
2023-03-31T12:10:15.356Z,94951
2023-03-31T12:11:15.290Z,94959
2023-03-31T12:12:15.266Z,94940
2023-03-31T12:13:15.294Z,94968
2023-03-31T12:14:15.292Z,94992
2023-03-31T12:15:15.339Z,94992
2023-03-31T12:16:15.316Z,95011
2023-03-31T12:17:15.297Z,95011
2023-03-31T12:18:15.346Z,95021
2023-03-31T12:19:15.332Z,95021
2023-03-31T12:20:15.333Z,95053
2023-03-31T12:21:15.301Z,95053
2023-03-31T12:22:15.307Z,95070
2023-03-31T12:23:15.354Z,95107
2023-03-31T12:24:15.353Z,95111
2023-03-31T12:25:15.320Z,95118
2023-03-31T12:26:15.359Z,95120
2023-03-31T12:27:15.334Z,95082
2023-03-31T12:28:15.343Z,95076
2023-03-31T12:29:15.368Z,95084
2023-03-31T12:30:15.377Z,95093
2023-03-31T12:31:15.350Z,95098
2023-03-31T12:32:15.340Z,95100
2023-03-31T12:33:15.368Z,95104
2023-03-31T12:34:15.344Z,95104
2023-03-31T12:35:15.387Z,95090
2023-03-31T12:36:15.417Z,95090
2023-03-31T12:37:15.356Z,95066
2023-03-31T12:38:15.402Z,95063
2023-03-31T12:39:15.350Z,95063
2023-03-31T12:40:15.382Z,95063
2023-03-31T12:41:15.375Z,95060
2023-03-31T12:42:15.382Z,95054
2023-03-31T12:43:15.433Z,95045
2023-03-31T12:44:15.402Z,95046
2023-03-31T12:45:15.369Z,95049
2023-03-31T12:46:15.386Z,95049
2023-03-31T12:47:15.370Z,95044
2023-03-31T12:48:15.420Z,95061
2023-03-31T12:49:15.402Z,95061
2023-03-31T12:51:15.405Z,95058
2023-03-31T12:52:15.397Z,95053
2023-03-31T12:53:15.451Z,95044
2023-03-31T12:54:15.425Z,95039
2023-03-31T12:55:15.410Z,95040
2023-03-31T12:56:15.420Z,95040
2023-03-31T12:57:15.487Z,95041
2023-03-31T12:58:15.466Z,95043
2023-03-31T12:59:15.428Z,95043
2023-03-31T13:00:15.433Z,95034
2023-03-31T13:01:15.435Z,95034
2023-03-31T13:02:15.529Z,95040
2023-03-31T13:03:15.487Z,95030
2023-03-31T13:04:17.348Z,95028
2023-03-31T13:05:15.413Z,95031
2023-03-31T13:06:15.456Z,95033
2023-03-31T13:07:27.713Z,95033
2023-03-31T13:08:15.486Z,95037
2023-03-31T13:09:15.459Z,95041
2023-03-31T13:10:15.507Z,95034
2023-03-31T13:11:15.458Z,95029
2023-03-31T13:12:15.449Z,95029
2023-03-31T13:13:15.460Z,95024
2023-03-31T13:14:15.462Z,95019
2023-03-31T13:15:15.438Z,95007
2023-03-31T13:16:15.520Z,95010
2023-03-31T13:17:15.472Z,95008
2023-03-31T13:19:15.491Z,95015
2023-03-31T13:20:15.566Z,95012
2023-03-31T13:21:15.460Z,95012
2023-03-31T13:23:15.490Z,95014
2023-03-31T13:24:15.493Z,95006
2023-03-31T13:25:15.492Z,95006
2023-03-31T13:26:15.484Z,95009
2023-03-31T13:27:15.486Z,95011
2023-03-31T13:28:15.491Z,95011
2023-03-31T13:29:15.537Z,95007
2023-03-31T13:30:15.506Z,95012
2023-03-31T13:31:15.565Z,95013
2023-03-31T13:32:15.554Z,95013
2023-03-31T13:33:17.764Z,95004
2023-03-31T13:34:15.519Z,95009
2023-03-31T13:35:15.515Z,95007
2023-03-31T13:36:15.581Z,95001
2023-03-31T13:37:15.526Z,95000
2023-03-31T13:38:15.489Z,94992
2023-03-31T13:40:15.496Z,94997
2023-03-31T13:41:15.515Z,94994
2023-03-31T13:42:15.552Z,94996
2023-03-31T13:43:15.529Z,94980
2023-03-31T13:44:17.889Z,94983
2023-03-31T13:45:15.575Z,94967
2023-03-31T13:46:15.674Z,94972
2023-03-31T13:47:15.517Z,94972
2023-03-31T13:48:15.558Z,94927
2023-03-31T13:49:15.533Z,94952
2023-03-31T13:50:15.516Z,94952
2023-03-31T13:51:15.551Z,94968
2023-03-31T13:52:15.532Z,94968
2023-03-31T13:53:15.538Z,94971
2023-03-31T13:54:15.581Z,94982
2023-03-31T13:55:16.643Z,94982
2023-03-31T13:56:15.561Z,94977
2023-03-31T13:57:15.599Z,94959